createdAt,value
2022-10-23T00:02:24.819Z,5.30
2022-10-23T00:04:51.473Z,5.30
2022-10-23T00:07:18.155Z,5.20
2022-10-23T00:09:44.455Z,5.20
2022-10-23T00:12:10.668Z,5.43
2022-10-23T00:14:36.893Z,4.77
2022-10-23T00:17:03.530Z,5.00
2022-10-23T00:19:29.747Z,5.70
2022-10-23T00:21:55.953Z,5.47
2022-10-23T00:24:22.188Z,5.30
2022-10-23T00:26:50.404Z,5.40
2022-10-23T00:29:16.644Z,5.43
2022-10-23T00:31:42.941Z,5.57
2022-10-23T00:34:09.278Z,5.50
2022-10-23T00:36:35.519Z,5.50
2022-10-23T00:39:01.808Z,6.00
2022-10-23T00:41:29.200Z,5.80
2022-10-23T00:44:21.553Z,5.73
2022-10-23T00:46:47.778Z,5.13
2022-10-23T00:49:14.593Z,5.57
2022-10-23T00:51:43.232Z,5.47
2022-10-23T00:54:25.367Z,5.50
2022-10-23T00:56:53.540Z,5.43
2022-10-23T00:59:19.756Z,5.27
2022-10-23T01:01:46.164Z,5.00
2022-10-23T01:04:12.810Z,5.60
2022-10-23T01:06:43.596Z,5.87
2022-10-23T01:09:23.319Z,5.30
2022-10-23T01:11:56.933Z,5.37
2022-10-23T01:14:23.527Z,5.20
2022-10-23T01:16:56.470Z,5.77
2022-10-23T01:19:31.705Z,5.87
2022-10-23T01:22:09.608Z,5.10
2022-10-23T01:25:05.072Z,5.67
2022-10-23T01:27:36.631Z,5.63
2022-10-23T01:30:08.030Z,5.43
2022-10-23T01:32:39.025Z,5.77
2022-10-23T01:35:11.551Z,5.90
2022-10-23T01:37:45.349Z,5.10
2022-10-23T01:40:22.630Z,5.50
2022-10-23T01:42:53.100Z,5.90
2022-10-23T01:45:24.044Z,5.50
2022-10-23T01:47:50.599Z,5.17
2022-10-23T01:50:17.567Z,5.50
2022-10-23T01:52:43.779Z,5.10
2022-10-23T01:55:10.775Z,5.80
2022-10-23T01:57:38.075Z,4.90
2022-10-23T02:00:07.473Z,5.17
2022-10-23T02:02:35.414Z,5.20
2022-10-23T02:05:04.511Z,5.40
2022-10-23T02:07:30.926Z,5.23
2022-10-23T02:09:57.216Z,5.87
2022-10-23T02:12:29.163Z,4.80
2022-10-23T02:15:00.830Z,4.83
2022-10-23T02:17:33.128Z,5.37
2022-10-23T02:20:20.996Z,6.00
2022-10-23T02:22:52.247Z,5.53
2022-10-23T02:25:20.633Z,5.13
2022-10-23T02:27:56.847Z,5.63
2022-10-23T02:30:23.084Z,5.87
2022-10-23T02:32:51.237Z,5.63
2022-10-23T02:35:18.254Z,5.70
2022-10-23T02:37:51.786Z,5.70
2022-10-23T02:40:18.020Z,5.60
2022-10-23T02:42:49.706Z,6.00
2022-10-23T02:45:36.198Z,5.53
2022-10-23T02:48:18.855Z,5.60
2022-10-23T02:51:02.910Z,6.00
2022-10-23T02:53:37.265Z,5.80
2022-10-23T02:56:13.518Z,5.23
2022-10-23T02:58:39.728Z,5.60
2022-10-23T03:01:09.202Z,5.27
2022-10-23T03:03:38.375Z,5.47
2022-10-23T03:06:04.825Z,5.67
2022-10-23T03:08:40.269Z,5.30
2022-10-23T03:11:06.473Z,5.57
2022-10-23T03:13:32.694Z,5.77
2022-10-23T03:15:58.895Z,6.00
2022-10-23T03:18:25.101Z,5.97
2022-10-23T03:20:51.298Z,6.10
2022-10-23T03:23:17.527Z,5.67
2022-10-23T03:25:43.735Z,5.93
2022-10-23T03:28:09.971Z,5.43
2022-10-23T03:30:36.254Z,5.87
2022-10-23T03:33:02.477Z,5.57
2022-10-23T03:35:28.689Z,5.83
2022-10-23T03:37:54.909Z,5.57
2022-10-23T03:40:21.239Z,6.37
2022-10-23T03:42:47.496Z,5.83
2022-10-23T03:45:13.790Z,5.97
2022-10-23T03:47:41.492Z,6.03
2022-10-23T03:50:09.296Z,6.30
2022-10-23T03:52:35.828Z,6.40
2022-10-23T03:55:02.042Z,5.80
2022-10-23T03:57:28.271Z,6.20
2022-10-23T03:59:54.547Z,5.87
2022-10-23T04:02:21.728Z,6.10
2022-10-23T04:04:48.096Z,5.93
2022-10-23T04:07:14.404Z,5.93
2022-10-23T04:09:40.629Z,6.10
2022-10-23T04:12:06.995Z,6.27
2022-10-23T04:14:33.225Z,6.00
2022-10-23T04:16:59.606Z,6.40
2022-10-23T04:19:25.864Z,5.47
2022-10-23T04:21:52.090Z,6.33
2022-10-23T04:24:18.301Z,6.10
2022-10-23T04:26:44.514Z,6.70
2022-10-23T04:29:10.743Z,6.50
2022-10-23T04:31:37.027Z,6.30
2022-10-23T04:34:03.351Z,5.97
2022-10-23T04:36:29.616Z,6.70
2022-10-23T04:38:55.872Z,6.50
2022-10-23T04:41:22.108Z,6.53
2022-10-23T04:43:48.299Z,6.30
2022-10-23T04:46:14.558Z,6.53
2022-10-23T04:48:40.770Z,6.20
2022-10-23T04:51:07.568Z,6.67
2022-10-23T04:53:33.835Z,6.43
2022-10-23T04:56:00.582Z,6.30
2022-10-23T04:58:27.692Z,6.30
2022-10-23T05:00:54.206Z,6.30
2022-10-23T05:03:22.598Z,6.37
2022-10-23T05:05:48.845Z,6.30
2022-10-23T05:08:17.915Z,6.67
2022-10-23T05:10:44.557Z,7.60
2022-10-23T05:13:11.009Z,6.87
2022-10-23T05:15:37.293Z,6.77
2022-10-23T05:18:09.377Z,7.00
2022-10-23T05:20:37.162Z,6.33
2022-10-23T05:23:06.563Z,7.07
2022-10-23T05:25:32.777Z,7.13
2022-10-23T05:27:59.010Z,6.83
2022-10-23T05:30:25.320Z,6.67
2022-10-23T05:32:51.625Z,6.80
2022-10-23T05:35:20.023Z,6.60
2022-10-23T05:37:47.061Z,7.30
2022-10-23T05:40:13.305Z,7.43
2022-10-23T05:42:41.590Z,7.07
2022-10-23T05:45:08.342Z,6.43
2022-10-23T05:47:34.636Z,7.30
2022-10-23T05:50:00.897Z,6.77
2022-10-23T05:52:27.169Z,6.87
2022-10-23T05:54:53.434Z,6.23
2022-10-23T05:57:19.816Z,7.10
2022-10-23T05:59:46.170Z,6.67
2022-10-23T06:02:12.547Z,6.97
2022-10-23T06:04:38.818Z,6.53
2022-10-23T06:07:05.100Z,6.97
2022-10-23T06:09:32.336Z,7.00
2022-10-23T06:12:00.669Z,7.00
2022-10-23T06:14:26.943Z,6.87
2022-10-23T06:16:53.191Z,6.47
2022-10-23T06:19:19.485Z,6.80
2022-10-23T06:21:45.751Z,6.93
2022-10-23T06:24:11.978Z,6.90
2022-10-23T06:26:38.234Z,7.00
2022-10-23T06:29:04.561Z,7.10
2022-10-23T06:31:30.980Z,6.73
2022-10-23T06:33:58.078Z,7.30
2022-10-23T06:36:24.347Z,7.23
2022-10-23T06:38:51.967Z,6.97
2022-10-23T06:41:20.197Z,6.67
2022-10-23T06:43:50.084Z,6.33
2022-10-23T06:46:16.573Z,7.53
2022-10-23T06:48:42.814Z,7.27
2022-10-23T06:51:10.426Z,8.23
2022-10-23T06:53:37.384Z,7.23
2022-10-23T06:56:04.445Z,7.10
2022-10-23T06:58:30.735Z,8.10
2022-10-23T07:01:00.075Z,7.77
2022-10-23T07:03:26.443Z,7.40
2022-10-23T07:05:52.739Z,7.47
2022-10-23T07:08:18.987Z,8.10
2022-10-23T07:10:45.269Z,7.70
2022-10-23T07:13:11.943Z,7.93
2022-10-23T07:15:39.665Z,8.00
2022-10-23T07:18:06.562Z,8.03
2022-10-23T07:20:32.863Z,7.87
2022-10-23T07:22:59.200Z,8.20
2022-10-23T07:25:26.422Z,8.30
2022-10-23T07:27:54.817Z,8.00
2022-10-23T07:30:21.141Z,7.30
2022-10-23T07:32:47.519Z,8.27
2022-10-23T07:37:41.195Z,7.80
2022-10-23T07:40:07.923Z,7.47
2022-10-23T07:42:34.499Z,7.60
2022-10-23T07:45:00.983Z,7.53
2022-10-23T07:47:27.285Z,7.30
2022-10-23T07:49:53.529Z,6.93
2022-10-23T07:52:19.843Z,7.43
2022-10-23T07:54:46.090Z,7.90
2022-10-23T07:57:12.329Z,6.93
2022-10-23T07:59:38.572Z,7.50
2022-10-23T08:02:11.461Z,6.63
2022-10-23T08:04:37.914Z,6.67
2022-10-23T08:07:04.249Z,6.53
2022-10-23T08:09:30.509Z,6.50
2022-10-23T08:11:56.775Z,6.67
2022-10-23T08:14:23.068Z,6.23
2022-10-23T08:16:49.341Z,6.20
2022-10-23T08:19:15.594Z,6.30
2022-10-23T08:21:41.890Z,5.93
2022-10-23T08:24:13.162Z,5.67
2022-10-23T08:26:39.451Z,5.97
2022-10-23T08:29:05.889Z,5.63
2022-10-23T08:31:32.191Z,5.30
2022-10-23T08:33:58.446Z,5.43
2022-10-23T08:36:25.845Z,5.50
2022-10-23T08:38:55.905Z,5.23
2022-10-23T08:41:33.091Z,4.80
2022-10-23T08:44:02.395Z,5.73
2022-10-23T08:46:31.082Z,4.57
2022-10-23T08:49:05.563Z,4.60
2022-10-23T08:51:35.816Z,4.53
2022-10-23T08:54:12.227Z,4.27
2022-10-23T08:56:41.060Z,4.17
2022-10-23T08:59:20.497Z,3.93
2022-10-23T09:01:49.392Z,4.37
2022-10-23T09:04:16.437Z,3.83
2022-10-23T09:06:54.524Z,4.10
2022-10-23T09:09:35.500Z,3.53
2022-10-23T09:12:11.452Z,3.77
2022-10-23T09:14:43.298Z,3.60
2022-10-23T09:17:16.315Z,3.60
2022-10-23T09:19:44.240Z,3.57
2022-10-23T09:22:11.278Z,3.70
2022-10-23T09:24:37.522Z,3.30
2022-10-23T09:29:36.063Z,3.17
2022-10-23T09:32:04.036Z,3.27
2022-10-23T09:34:31.398Z,3.67
2022-10-23T09:36:58.989Z,3.07
2022-10-23T09:39:32.669Z,3.13
2022-10-23T09:41:59.678Z,2.90
2022-10-23T09:44:30.451Z,2.90
2022-10-23T09:47:01.116Z,3.00
2022-10-23T09:49:29.004Z,2.87
2022-10-23T09:52:02.818Z,2.50
2022-10-23T09:54:30.464Z,2.53
2022-10-23T09:56:58.525Z,2.27
2022-10-23T09:59:26.818Z,2.73
2022-10-23T10:02:00.338Z,2.93
2022-10-23T10:04:34.010Z,2.43
2022-10-23T10:07:01.941Z,2.17
2022-10-23T10:09:28.357Z,2.53
2022-10-23T10:12:05.720Z,2.13
2022-10-23T10:14:41.130Z,2.03
2022-10-23T10:17:10.436Z,2.30
2022-10-23T10:20:05.466Z,2.37
2022-10-23T10:22:39.573Z,2.20
2022-10-23T10:25:08.845Z,2.00
2022-10-23T10:27:42.043Z,2.37
2022-10-23T10:30:12.678Z,2.40
2022-10-23T10:32:41.800Z,2.43
2022-10-23T10:35:20.822Z,2.00
2022-10-23T10:37:53.803Z,2.30
2022-10-23T10:40:27.892Z,1.80
2022-10-23T10:43:08.402Z,2.13
2022-10-23T10:45:38.548Z,2.90
2022-10-23T10:48:07.609Z,2.47
2022-10-23T10:50:36.955Z,2.00
2022-10-23T10:53:09.197Z,2.27
2022-10-23T10:55:40.858Z,2.20
2022-10-23T10:58:33.258Z,2.30
2022-10-23T11:01:02.233Z,2.03
2022-10-23T11:03:39.213Z,2.10
2022-10-23T11:06:12.230Z,2.10
2022-10-23T11:14:21.000Z,2.10
2022-10-23T11:17:04.494Z,1.70
2022-10-23T11:19:55.390Z,2.27
2022-10-23T11:22:33.854Z,2.30
2022-10-23T11:25:13.978Z,2.23
2022-10-23T11:27:48.656Z,2.10
2022-10-23T11:30:23.453Z,1.83
2022-10-23T11:33:08.299Z,2.03
2022-10-23T11:35:53.479Z,1.60
2022-10-23T11:38:24.400Z,1.60
2022-10-23T11:40:52.489Z,1.90
2022-10-23T11:43:27.850Z,1.87
2022-10-23T11:45:54.122Z,2.00
2022-10-23T11:48:35.093Z,2.00
2022-10-23T11:51:05.079Z,2.10
2022-10-23T11:53:31.510Z,2.17
2022-10-23T11:56:00.727Z,1.83
2022-10-23T11:58:34.113Z,2.07
2022-10-23T12:01:03.711Z,2.03
2022-10-23T12:03:50.281Z,2.20
2022-10-23T12:06:20.616Z,1.80
2022-10-23T12:08:50.468Z,2.10
2022-10-23T12:11:27.555Z,1.67
2022-10-23T12:13:54.382Z,1.80
2022-10-23T12:16:20.639Z,2.00
2022-10-23T12:18:48.502Z,1.73
2022-10-23T12:21:22.924Z,1.60
2022-10-23T12:23:55.132Z,1.60
2022-10-23T12:26:30.394Z,1.70
2022-10-23T12:29:17.562Z,1.90
2022-10-23T12:32:02.655Z,1.80
2022-10-23T12:34:47.534Z,1.57
2022-10-23T12:37:21.526Z,1.90
2022-10-23T12:39:52.392Z,1.80
2022-10-23T12:42:22.003Z,1.53
2022-10-23T12:45:07.287Z,1.47
2022-10-23T12:47:33.511Z,2.03
2022-10-23T12:49:59.748Z,1.93
2022-10-23T12:52:26.024Z,1.40
2022-10-23T12:54:52.334Z,1.60
2022-10-23T12:57:26.001Z,2.10
2022-10-23T13:00:00.624Z,1.60
2022-10-23T13:02:28.163Z,1.63
2022-10-23T13:04:56.027Z,1.50
2022-10-23T13:07:29.958Z,1.70
2022-10-23T13:09:57.392Z,1.83
2022-10-23T13:12:25.370Z,1.63
2022-10-23T13:14:55.898Z,2.10
2022-10-23T13:17:32.749Z,1.63
2022-10-23T13:20:08.184Z,1.70
2022-10-23T13:22:34.424Z,1.63
2022-10-23T13:25:00.657Z,1.90
2022-10-23T13:27:32.854Z,1.90
2022-10-23T13:29:59.456Z,1.90
2022-10-23T13:32:28.456Z,1.80
2022-10-23T13:35:03.967Z,1.93
2022-10-23T13:37:36.677Z,1.87
2022-10-23T13:40:10.214Z,2.00
2022-10-23T13:42:36.445Z,1.97
2022-10-23T13:45:02.711Z,2.40
2022-10-23T13:47:29.338Z,2.40
2022-10-23T13:49:55.557Z,2.60
2022-10-23T13:52:23.356Z,2.90
2022-10-23T13:54:50.032Z,2.43
2022-10-23T13:57:16.523Z,2.27
2022-10-23T13:59:42.793Z,2.43
2022-10-23T14:02:22.615Z,2.40
2022-10-23T14:04:50.191Z,2.40
2022-10-23T14:07:16.544Z,2.67
2022-10-23T14:09:42.827Z,2.00
2022-10-23T14:12:09.115Z,2.30
2022-10-23T14:14:35.343Z,2.30
2022-10-23T14:17:01.553Z,2.40
2022-10-23T14:19:27.877Z,2.20
2022-10-23T14:21:54.116Z,2.07
2022-10-23T14:24:20.318Z,2.27
2022-10-23T14:26:47.037Z,2.20
2022-10-23T14:29:21.239Z,2.23
2022-10-23T14:31:49.406Z,2.40
2022-10-23T14:34:15.742Z,2.07
2022-10-23T14:36:50.459Z,2.10
2022-10-23T14:39:17.491Z,2.20
2022-10-23T14:41:43.714Z,2.17
2022-10-23T14:44:09.968Z,2.17
2022-10-23T14:46:38.122Z,2.50
2022-10-23T14:49:04.346Z,2.13
2022-10-23T14:51:30.631Z,2.17
2022-10-23T14:54:03.801Z,2.23
2022-10-23T14:56:31.427Z,2.10
2022-10-23T14:59:03.966Z,2.20
2022-10-23T15:01:31.885Z,2.13
2022-10-23T15:03:58.258Z,2.37
2022-10-23T15:06:24.848Z,2.10
2022-10-23T15:08:56.280Z,2.30
2022-10-23T15:11:23.473Z,2.57
2022-10-23T15:13:49.978Z,2.40
2022-10-23T15:16:16.500Z,1.80
2022-10-23T15:18:42.709Z,2.40
2022-10-23T15:21:09.357Z,2.30
2022-10-23T15:23:36.587Z,2.40
2022-10-23T15:26:04.359Z,2.60
2022-10-23T15:28:31.523Z,2.53
2022-10-23T15:30:57.832Z,2.50
2022-10-23T15:33:24.192Z,2.43
2022-10-23T15:35:50.906Z,2.63
2022-10-23T15:38:17.246Z,2.50
2022-10-23T15:40:45.110Z,2.73
2022-10-23T15:43:13.073Z,2.77
2022-10-23T15:45:39.894Z,2.67
2022-10-23T15:48:06.328Z,3.30
2022-10-23T15:50:32.969Z,3.30
2022-10-23T15:52:59.295Z,3.27
2022-10-23T15:55:25.565Z,3.20
2022-10-23T15:57:51.822Z,3.33
2022-10-23T16:00:20.494Z,2.90
2022-10-23T16:02:47.354Z,2.90
2022-10-23T16:05:14.137Z,3.17
2022-10-23T16:07:40.347Z,3.23
2022-10-23T16:10:06.717Z,3.77
2022-10-23T16:12:32.930Z,3.33
2022-10-23T16:15:00.563Z,2.97
2022-10-23T16:17:26.886Z,4.10
2022-10-23T16:19:53.150Z,3.70
2022-10-23T16:22:19.428Z,3.27
2022-10-23T16:24:45.649Z,3.43
2022-10-23T16:27:14.219Z,3.63
2022-10-23T16:29:40.440Z,3.50
2022-10-23T16:32:06.730Z,3.57
2022-10-23T16:34:35.784Z,3.53
2022-10-23T16:37:02.019Z,3.57
2022-10-23T16:39:29.075Z,3.60
2022-10-23T16:41:55.391Z,3.50
2022-10-23T16:44:21.619Z,3.53
2022-10-23T16:46:47.870Z,3.00
2022-10-23T16:49:14.475Z,3.60
2022-10-23T16:51:40.713Z,3.40
2022-10-23T16:54:06.935Z,3.60
2022-10-23T16:56:33.237Z,3.47
2022-10-23T16:58:59.809Z,3.57
2022-10-23T17:01:28.164Z,3.60
2022-10-23T17:03:55.009Z,3.90
2022-10-23T17:06:22.962Z,3.73
2022-10-23T17:08:49.284Z,4.67
2022-10-23T17:11:17.319Z,3.70
2022-10-23T17:13:44.633Z,3.63
2022-10-23T17:16:12.189Z,4.80
2022-10-23T17:18:42.840Z,4.00
2022-10-23T17:21:16.265Z,3.90
2022-10-23T17:23:42.655Z,4.37
2022-10-23T17:26:10.242Z,3.97
2022-10-23T17:28:43.275Z,4.33
2022-10-23T17:31:12.915Z,4.43
2022-10-23T17:33:39.698Z,4.00
2022-10-23T17:36:06.153Z,4.40
2022-10-23T17:38:34.345Z,4.17
2022-10-23T17:41:00.768Z,4.23
2022-10-23T17:43:27.092Z,4.00
2022-10-23T17:45:53.312Z,4.50
2022-10-23T17:48:19.519Z,4.50
2022-10-23T17:50:45.722Z,4.10
2022-10-23T17:53:11.929Z,3.60
2022-10-23T17:55:39.516Z,4.37
2022-10-23T17:58:08.026Z,3.83
2022-10-23T18:00:37.983Z,4.13
2022-10-23T18:03:04.464Z,4.30
2022-10-23T18:05:32.840Z,4.30
2022-10-23T18:07:59.335Z,4.27
2022-10-23T18:10:25.748Z,4.90
2022-10-23T18:12:54.352Z,4.10
2022-10-23T18:15:20.844Z,4.23
2022-10-23T18:17:47.207Z,4.30
2022-10-23T18:20:14.751Z,4.37
2022-10-23T18:22:41.170Z,4.50
2022-10-23T18:25:07.674Z,4.57
2022-10-23T18:27:34.151Z,4.17
2022-10-23T18:30:00.472Z,4.30
2022-10-23T18:32:28.123Z,4.37
2022-10-23T18:34:54.330Z,4.27
2022-10-23T18:37:22.131Z,4.07
2022-10-23T18:39:48.349Z,4.17
2022-10-23T18:42:14.562Z,4.40
2022-10-23T18:44:46.718Z,4.20
2022-10-23T18:47:13.015Z,4.27
2022-10-23T18:49:39.295Z,4.30
2022-10-23T18:52:05.970Z,4.30
2022-10-23T18:54:32.299Z,4.03
2022-10-23T18:56:58.515Z,3.80
2022-10-23T18:59:24.763Z,4.50
2022-10-23T19:01:51.215Z,4.00
2022-10-23T19:04:20.421Z,4.37
2022-10-23T19:06:50.702Z,4.00
2022-10-23T19:09:17.348Z,4.10
2022-10-23T19:11:46.049Z,4.07
2022-10-23T19:14:12.499Z,4.20
2022-10-23T19:16:58.998Z,4.50
2022-10-23T19:19:30.190Z,4.47
2022-10-23T19:21:56.674Z,4.53
2022-10-23T19:24:24.875Z,4.40
2022-10-23T19:26:51.679Z,4.57
2022-10-23T19:29:19.823Z,4.60
2022-10-23T19:31:49.160Z,4.57
2022-10-23T19:34:25.075Z,5.60
2022-10-23T19:36:54.860Z,4.70
2022-10-23T19:39:21.126Z,4.87
2022-10-23T19:41:47.706Z,4.60
2022-10-23T19:44:14.475Z,4.30
2022-10-23T19:46:40.707Z,4.63
2022-10-23T19:49:06.944Z,4.80
2022-10-23T19:51:33.161Z,4.43
2022-10-23T19:53:59.440Z,4.47
2022-10-23T19:56:25.852Z,4.33
2022-10-23T19:58:52.384Z,5.20
2022-10-23T20:01:23.259Z,4.03
2022-10-23T20:03:49.968Z,4.27
2022-10-23T20:06:17.717Z,4.67
2022-10-23T20:08:43.973Z,4.30
2022-10-23T20:11:17.835Z,4.60
2022-10-23T20:13:46.644Z,4.53
2022-10-23T20:16:16.938Z,4.20
2022-10-23T20:18:43.237Z,4.40
2022-10-23T20:21:09.542Z,4.60
2022-10-23T20:23:35.767Z,4.57
2022-10-23T20:26:09.128Z,4.70
2022-10-23T20:28:35.905Z,4.60
2022-10-23T20:31:09.099Z,4.43
2022-10-23T20:33:36.034Z,4.90
2022-10-23T20:36:02.718Z,4.47
2022-10-23T20:38:29.282Z,4.90
2022-10-23T20:40:56.390Z,4.83
2022-10-23T20:43:22.604Z,4.60
2022-10-23T20:45:48.823Z,4.97
2022-10-23T20:48:15.042Z,4.90
2022-10-23T20:50:41.261Z,5.07
2022-10-23T20:53:07.485Z,5.10
2022-10-23T20:55:33.743Z,5.13
2022-10-23T20:57:59.958Z,5.90
2022-10-23T21:00:26.870Z,5.47
2022-10-23T21:02:53.431Z,5.57
2022-10-23T21:05:19.835Z,5.80
2022-10-23T21:07:46.030Z,5.37
2022-10-23T21:10:13.537Z,5.17
2022-10-23T21:12:39.802Z,5.50
2022-10-23T21:15:06.376Z,4.93
2022-10-23T21:17:36.023Z,5.47
2022-10-23T21:20:02.582Z,5.10
2022-10-23T21:22:28.860Z,5.53
2022-10-23T21:24:56.901Z,5.47
2022-10-23T21:27:23.126Z,5.60
2022-10-23T21:29:49.387Z,5.80
2022-10-23T21:32:15.730Z,5.63
2022-10-23T21:34:41.952Z,5.37
2022-10-23T21:37:12.949Z,6.43
2022-10-23T21:39:40.036Z,5.57
2022-10-23T21:42:06.312Z,6.70
2022-10-23T21:44:32.577Z,5.63
2022-10-23T21:46:58.783Z,5.87
2022-10-23T21:49:24.984Z,5.63
2022-10-23T21:51:51.314Z,5.80
2022-10-23T21:54:17.528Z,5.47
2022-10-23T21:56:45.335Z,6.00
2022-10-23T21:59:15.883Z,5.50
2022-10-23T22:01:43.854Z,6.20
2022-10-23T22:04:10.802Z,5.57
2022-10-23T22:06:37.838Z,5.60
2022-10-23T22:09:04.984Z,5.90
2022-10-23T22:11:31.279Z,6.30
2022-10-23T22:13:58.108Z,5.90
2022-10-23T22:16:24.575Z,6.10
2022-10-23T22:18:50.848Z,6.27
2022-10-23T22:21:18.679Z,6.30
2022-10-23T22:23:45.434Z,6.40
2022-10-23T22:26:18.739Z,6.53
2022-10-23T22:28:45.030Z,6.50
2022-10-23T22:31:18.243Z,6.23
2022-10-23T22:33:44.474Z,5.70
2022-10-23T22:36:11.104Z,6.33
2022-10-23T22:38:37.582Z,5.97
2022-10-23T22:41:04.220Z,6.13
2022-10-23T22:43:30.495Z,6.60
2022-10-23T22:46:03.604Z,6.13
2022-10-23T22:48:29.935Z,5.93
2022-10-23T22:50:56.146Z,6.10
2022-10-23T22:53:22.408Z,6.70
2022-10-23T22:55:48.691Z,5.87
2022-10-23T22:58:14.969Z,5.57
2022-10-23T23:00:43.581Z,5.30
2022-10-23T23:03:10.087Z,5.03
2022-10-23T23:05:43.717Z,5.77
2022-10-23T23:08:10.297Z,6.30
2022-10-23T23:10:36.826Z,5.20
2022-10-23T23:13:03.212Z,5.50
2022-10-23T23:15:29.499Z,5.40
2022-10-23T23:17:55.744Z,5.30
2022-10-23T23:20:21.991Z,4.77
2022-10-23T23:22:48.224Z,5.47
2022-10-23T23:25:14.449Z,5.60
2022-10-23T23:27:40.744Z,5.17
2022-10-23T23:30:07.816Z,5.20
2022-10-23T23:32:34.642Z,5.40
2022-10-23T23:35:01.276Z,5.00
2022-10-23T23:37:27.687Z,4.90
2022-10-23T23:39:53.932Z,4.93
2022-10-23T23:42:20.160Z,5.20
2022-10-23T23:44:55.970Z,5.20
2022-10-23T23:47:29.270Z,5.30
2022-10-23T23:49:55.470Z,5.10
2022-10-23T23:52:21.712Z,5.73
2022-10-23T23:54:47.990Z,4.93
2022-10-23T23:57:14.230Z,4.90
2022-10-23T23:59:41.021Z,5.50
